sensor_id;sensor_type;location;lat;lon;timestamp;P1;durP1;ratioP1;P2;durP2;ratioP2
8574;SDS011;4325;42.520;27.448;2023-09-18T00:01:17;3.10;;;2.47;;
8574;SDS011;4325;42.520;27.448;2023-09-18T00:03:45;2.20;;;2.00;;
8574;SDS011;4325;42.520;27.448;2023-09-18T00:06:11;2.90;;;2.00;;
8574;SDS011;4325;42.520;27.448;2023-09-18T00:08:38;5.70;;;2.13;;
8574;SDS011;4325;42.520;27.448;2023-09-18T00:11:06;2.40;;;2.20;;
8574;SDS011;4325;42.520;27.448;2023-09-18T00:13:34;2.40;;;2.10;;
8574;SDS011;4325;42.520;27.448;2023-09-18T00:16:01;2.90;;;2.23;;
8574;SDS011;4325;42.520;27.448;2023-09-18T00:18:29;3.33;;;2.30;;
8574;SDS011;4325;42.520;27.448;2023-09-18T00:20:56;3.10;;;2.07;;
8574;SDS011;4325;42.520;27.448;2023-09-18T00:23:23;2.53;;;2.17;;
8574;SDS011;4325;42.520;27.448;2023-09-18T00:25:49;3.43;;;2.40;;
8574;SDS011;4325;42.520;27.448;2023-09-18T00:28:16;2.10;;;1.90;;
8574;SDS011;4325;42.520;27.448;2023-09-18T00:30:48;3.77;;;2.40;;
8574;SDS011;4325;42.520;27.448;2023-09-18T00:33:16;2.03;;;1.93;;
8574;SDS011;4325;42.520;27.448;2023-09-18T00:35:47;3.00;;;2.10;;
8574;SDS011;4325;42.520;27.448;2023-09-18T00:38:16;5.00;;;2.60;;
8574;SDS011;4325;42.520;27.448;2023-09-18T00:40:43;2.20;;;1.90;;
8574;SDS011;4325;42.520;27.448;2023-09-18T00:43:10;2.30;;;2.03;;
8574;SDS011;4325;42.520;27.448;2023-09-18T00:45:38;2.00;;;1.77;;
8574;SDS011;4325;42.520;27.448;2023-09-18T00:48:09;3.43;;;2.33;;
8574;SDS011;4325;42.520;27.448;2023-09-18T00:50:37;3.47;;;2.10;;
8574;SDS011;4325;42.520;27.448;2023-09-18T00:53:05;5.60;;;2.30;;
8574;SDS011;4325;42.520;27.448;2023-09-18T00:55:34;4.93;;;1.87;;
8574;SDS011;4325;42.520;27.448;2023-09-18T00:58:04;2.97;;;2.13;;
8574;SDS011;4325;42.520;27.448;2023-09-18T01:00:31;3.30;;;2.43;;
8574;SDS011;4325;42.520;27.448;2023-09-18T01:02:58;2.83;;;2.27;;
8574;SDS011;4325;42.520;27.448;2023-09-18T01:05:27;2.80;;;2.50;;
8574;SDS011;4325;42.520;27.448;2023-09-18T01:07:53;6.43;;;2.20;;
8574;SDS011;4325;42.520;27.448;2023-09-18T01:10:20;3.23;;;2.10;;
8574;SDS011;4325;42.520;27.448;2023-09-18T01:12:52;2.27;;;1.70;;
8574;SDS011;4325;42.520;27.448;2023-09-18T01:15:30;2.90;;;2.10;;
8574;SDS011;4325;42.520;27.448;2023-09-18T01:18:01;2.33;;;2.10;;
8574;SDS011;4325;42.520;27.448;2023-09-18T01:20:30;4.73;;;2.17;;
8574;SDS011;4325;42.520;27.448;2023-09-18T01:22:58;3.33;;;2.47;;
8574;SDS011;4325;42.520;27.448;2023-09-18T01:25:25;2.53;;;2.33;;
8574;SDS011;4325;42.520;27.448;2023-09-18T01:27:52;3.13;;;2.63;;
8574;SDS011;4325;42.520;27.448;2023-09-18T01:30:18;3.37;;;2.23;;
8574;SDS011;4325;42.520;27.448;2023-09-18T01:32:45;3.13;;;2.30;;
8574;SDS011;4325;42.520;27.448;2023-09-18T01:35:13;2.30;;;2.07;;
8574;SDS011;4325;42.520;27.448;2023-09-18T01:37:41;7.27;;;2.60;;
8574;SDS011;4325;42.520;27.448;2023-09-18T01:40:12;3.23;;;1.63;;
8574;SDS011;4325;42.520;27.448;2023-09-18T01:42:39;2.20;;;2.00;;
8574;SDS011;4325;42.520;27.448;2023-09-18T01:45:08;2.57;;;2.10;;
8574;SDS011;4325;42.520;27.448;2023-09-18T01:47:35;3.47;;;2.60;;
8574;SDS011;4325;42.520;27.448;2023-09-18T01:50:03;2.30;;;2.10;;
8574;SDS011;4325;42.520;27.448;2023-09-18T01:52:31;2.23;;;2.03;;
8574;SDS011;4325;42.520;27.448;2023-09-18T01:54:59;2.47;;;2.07;;
8574;SDS011;4325;42.520;27.448;2023-09-18T01:57:27;5.87;;;2.37;;
8574;SDS011;4325;42.520;27.448;2023-09-18T01:59:54;4.33;;;2.47;;
8574;SDS011;4325;42.520;27.448;2023-09-18T02:02:21;2.40;;;2.20;;
8574;SDS011;4325;42.520;27.448;2023-09-18T02:04:49;2.87;;;2.50;;
8574;SDS011;4325;42.520;27.448;2023-09-18T02:07:15;2.97;;;1.97;;
8574;SDS011;4325;42.520;27.448;2023-09-18T02:09:42;3.27;;;2.80;;
8574;SDS011;4325;42.520;27.448;2023-09-18T02:12:09;2.03;;;1.90;;
8574;SDS011;4325;42.520;27.448;2023-09-18T02:14:43;3.03;;;2.17;;
8574;SDS011;4325;42.520;27.448;2023-09-18T02:17:10;2.50;;;2.23;;
8574;SDS011;4325;42.520;27.448;2023-09-18T02:19:37;3.63;;;2.20;;
8574;SDS011;4325;42.520;27.448;2023-09-18T02:22:04;3.63;;;2.77;;
8574;SDS011;4325;42.520;27.448;2023-09-18T02:24:31;4.03;;;2.50;;
8574;SDS011;4325;42.520;27.448;2023-09-18T02:26:58;3.43;;;2.83;;
8574;SDS011;4325;42.520;27.448;2023-09-18T02:29:25;4.37;;;2.90;;
8574;SDS011;4325;42.520;27.448;2023-09-18T02:31:53;6.97;;;2.60;;
8574;SDS011;4325;42.520;27.448;2023-09-18T02:34:20;3.90;;;2.77;;
8574;SDS011;4325;42.520;27.448;2023-09-18T02:36:47;4.13;;;2.60;;
8574;SDS011;4325;42.520;27.448;2023-09-18T02:39:14;2.90;;;2.60;;
8574;SDS011;4325;42.520;27.448;2023-09-18T02:41:40;3.00;;;2.70;;
8574;SDS011;4325;42.520;27.448;2023-09-18T02:44:07;2.47;;;2.27;;
8574;SDS011;4325;42.520;27.448;2023-09-18T02:46:36;3.47;;;2.40;;
8574;SDS011;4325;42.520;27.448;2023-09-18T02:49:04;5.03;;;3.00;;
8574;SDS011;4325;42.520;27.448;2023-09-18T02:51:31;5.63;;;2.60;;
8574;SDS011;4325;42.520;27.448;2023-09-18T02:53:58;2.43;;;2.23;;
8574;SDS011;4325;42.520;27.448;2023-09-18T02:56:25;4.30;;;2.83;;
8574;SDS011;4325;42.520;27.448;2023-09-18T02:58:52;4.30;;;2.70;;
8574;SDS011;4325;42.520;27.448;2023-09-18T03:01:18;3.67;;;2.87;;
8574;SDS011;4325;42.520;27.448;2023-09-18T03:03:45;2.50;;;2.30;;
8574;SDS011;4325;42.520;27.448;2023-09-18T03:06:13;3.03;;;2.47;;
8574;SDS011;4325;42.520;27.448;2023-09-18T03:08:41;3.37;;;2.47;;
8574;SDS011;4325;42.520;27.448;2023-09-18T03:11:10;2.47;;;2.10;;
8574;SDS011;4325;42.520;27.448;2023-09-18T03:13:42;4.33;;;2.60;;
8574;SDS011;4325;42.520;27.448;2023-09-18T03:16:10;3.97;;;3.23;;
8574;SDS011;4325;42.520;27.448;2023-09-18T03:18:37;4.20;;;2.87;;
8574;SDS011;4325;42.520;27.448;2023-09-18T03:21:04;4.53;;;2.57;;
8574;SDS011;4325;42.520;27.448;2023-09-18T03:23:32;7.53;;;3.13;;
8574;SDS011;4325;42.520;27.448;2023-09-18T03:25:59;3.07;;;2.63;;
8574;SDS011;4325;42.520;27.448;2023-09-18T03:28:26;4.43;;;2.67;;
8574;SDS011;4325;42.520;27.448;2023-09-18T03:30:53;4.83;;;3.00;;
8574;SDS011;4325;42.520;27.448;2023-09-18T03:33:20;3.33;;;3.00;;
8574;SDS011;4325;42.520;27.448;2023-09-18T03:35:47;6.10;;;2.83;;
8574;SDS011;4325;42.520;27.448;2023-09-18T03:38:14;3.67;;;2.77;;
8574;SDS011;4325;42.520;27.448;2023-09-18T03:40:43;2.97;;;2.67;;
8574;SDS011;4325;42.520;27.448;2023-09-18T03:43:10;6.27;;;2.83;;
8574;SDS011;4325;42.520;27.448;2023-09-18T03:45:38;6.80;;;3.40;;
8574;SDS011;4325;42.520;27.448;2023-09-18T03:48:06;4.33;;;2.90;;
8574;SDS011;4325;42.520;27.448;2023-09-18T03:50:32;4.43;;;3.00;;
8574;SDS011;4325;42.520;27.448;2023-09-18T03:52:59;4.97;;;3.47;;
8574;SDS011;4325;42.520;27.448;2023-09-18T03:55:26;2.93;;;2.63;;
8574;SDS011;4325;42.520;27.448;2023-09-18T03:57:54;5.13;;;2.80;;
8574;SDS011;4325;42.520;27.448;2023-09-18T04:00:21;3.30;;;2.67;;
8574;SDS011;4325;42.520;27.448;2023-09-18T04:02:48;3.80;;;3.03;;
8574;SDS011;4325;42.520;27.448;2023-09-18T04:05:15;6.33;;;3.43;;
8574;SDS011;4325;42.520;27.448;2023-09-18T04:07:42;3.43;;;3.13;;
8574;SDS011;4325;42.520;27.448;2023-09-18T04:10:11;5.83;;;2.80;;
8574;SDS011;4325;42.520;27.448;2023-09-18T04:12:43;4.50;;;2.77;;
8574;SDS011;4325;42.520;27.448;2023-09-18T04:15:14;4.80;;;3.27;;
8574;SDS011;4325;42.520;27.448;2023-09-18T04:17:42;3.60;;;3.20;;
8574;SDS011;4325;42.520;27.448;2023-09-18T04:20:10;6.50;;;3.33;;
8574;SDS011;4325;42.520;27.448;2023-09-18T04:22:46;4.30;;;3.07;;
8574;SDS011;4325;42.520;27.448;2023-09-18T04:25:14;3.50;;;3.00;;
8574;SDS011;4325;42.520;27.448;2023-09-18T04:27:41;3.37;;;2.57;;
8574;SDS011;4325;42.520;27.448;2023-09-18T04:30:08;3.50;;;3.20;;
8574;SDS011;4325;42.520;27.448;2023-09-18T04:32:37;3.77;;;3.47;;
8574;SDS011;4325;42.520;27.448;2023-09-18T04:35:05;4.20;;;3.33;;
8574;SDS011;4325;42.520;27.448;2023-09-18T04:37:35;7.00;;;3.53;;
8574;SDS011;4325;42.520;27.448;2023-09-18T04:40:04;5.77;;;4.37;;
8574;SDS011;4325;42.520;27.448;2023-09-18T04:42:35;6.50;;;3.20;;
8574;SDS011;4325;42.520;27.448;2023-09-18T04:45:03;6.70;;;3.77;;
8574;SDS011;4325;42.520;27.448;2023-09-18T04:47:30;5.80;;;3.40;;
8574;SDS011;4325;42.520;27.448;2023-09-18T04:49:58;3.53;;;2.87;;
8574;SDS011;4325;42.520;27.448;2023-09-18T04:52:25;7.70;;;3.60;;
8574;SDS011;4325;42.520;27.448;2023-09-18T04:54:52;3.97;;;3.27;;
8574;SDS011;4325;42.520;27.448;2023-09-18T04:57:19;4.70;;;3.67;;
8574;SDS011;4325;42.520;27.448;2023-09-18T04:59:47;3.60;;;3.23;;
8574;SDS011;4325;42.520;27.448;2023-09-18T05:02:14;9.57;;;3.70;;
8574;SDS011;4325;42.520;27.448;2023-09-18T05:04:41;4.00;;;3.43;;
8574;SDS011;4325;42.520;27.448;2023-09-18T05:07:09;3.93;;;3.50;;
8574;SDS011;4325;42.520;27.448;2023-09-18T05:09:37;5.53;;;3.60;;
8574;SDS011;4325;42.520;27.448;2023-09-18T05:12:05;4.40;;;3.80;;
8574;SDS011;4325;42.520;27.448;2023-09-18T05:14:33;6.90;;;4.10;;
8574;SDS011;4325;42.520;27.448;2023-09-18T05:17:00;6.43;;;4.03;;
8574;SDS011;4325;42.520;27.448;2023-09-18T05:19:27;4.33;;;3.57;;
8574;SDS011;4325;42.520;27.448;2023-09-18T05:21:54;5.37;;;3.77;;
8574;SDS011;4325;42.520;27.448;2023-09-18T05:24:22;4.23;;;3.53;;
8574;SDS011;4325;42.520;27.448;2023-09-18T05:26:52;4.10;;;3.53;;
8574;SDS011;4325;42.520;27.448;2023-09-18T05:29:19;4.03;;;3.40;;
8574;SDS011;4325;42.520;27.448;2023-09-18T05:31:46;7.10;;;3.83;;
8574;SDS011;4325;42.520;27.448;2023-09-18T05:34:13;3.93;;;3.20;;
8574;SDS011;4325;42.520;27.448;2023-09-18T05:36:39;13.93;;;3.73;;
8574;SDS011;4325;42.520;27.448;2023-09-18T05:39:06;5.33;;;3.87;;
8574;SDS011;4325;42.520;27.448;2023-09-18T05:41:36;4.57;;;4.03;;
8574;SDS011;4325;42.520;27.448;2023-09-18T05:44:03;4.50;;;3.30;;
8574;SDS011;4325;42.520;27.448;2023-09-18T05:46:34;4.87;;;3.17;;
8574;SDS011;4325;42.520;27.448;2023-09-18T05:49:01;7.37;;;4.03;;
8574;SDS011;4325;42.520;27.448;2023-09-18T05:51:28;6.17;;;3.67;;
8574;SDS011;4325;42.520;27.448;2023-09-18T05:53:55;4.83;;;3.20;;
8574;SDS011;4325;42.520;27.448;2023-09-18T05:56:22;4.93;;;3.53;;
8574;SDS011;4325;42.520;27.448;2023-09-18T05:58:51;10.43;;;4.10;;
8574;SDS011;4325;42.520;27.448;2023-09-18T06:01:18;9.70;;;4.00;;
8574;SDS011;4325;42.520;27.448;2023-09-18T06:03:45;7.47;;;5.23;;
8574;SDS011;4325;42.520;27.448;2023-09-18T06:06:12;7.90;;;5.60;;
8574;SDS011;4325;42.520;27.448;2023-09-18T06:08:39;5.90;;;4.30;;
8574;SDS011;4325;42.520;27.448;2023-09-18T06:11:06;5.97;;;4.13;;
8574;SDS011;4325;42.520;27.448;2023-09-18T06:13:33;4.70;;;4.27;;
8574;SDS011;4325;42.520;27.448;2023-09-18T06:16:02;3.90;;;3.50;;
8574;SDS011;4325;42.520;27.448;2023-09-18T06:18:33;9.03;;;4.07;;
8574;SDS011;4325;42.520;27.448;2023-09-18T06:21:00;4.40;;;3.70;;
8574;SDS011;4325;42.520;27.448;2023-09-18T06:23:27;5.67;;;3.37;;
8574;SDS011;4325;42.520;27.448;2023-09-18T06:25:54;3.80;;;3.50;;
8574;SDS011;4325;42.520;27.448;2023-09-18T06:28:21;4.20;;;3.60;;
8574;SDS011;4325;42.520;27.448;2023-09-18T06:30:48;6.83;;;4.63;;
8574;SDS011;4325;42.520;27.448;2023-09-18T06:33:16;5.83;;;4.40;;
8574;SDS011;4325;42.520;27.448;2023-09-18T06:35:43;6.03;;;3.87;;
8574;SDS011;4325;42.520;27.448;2023-09-18T06:38:10;4.57;;;3.80;;
8574;SDS011;4325;42.520;27.448;2023-09-18T06:40:37;6.33;;;4.20;;
8574;SDS011;4325;42.520;27.448;2023-09-18T06:43:04;3.70;;;3.30;;
8574;SDS011;4325;42.520;27.448;2023-09-18T06:45:31;5.70;;;5.07;;
8574;SDS011;4325;42.520;27.448;2023-09-18T06:47:59;4.53;;;4.10;;
8574;SDS011;4325;42.520;27.448;2023-09-18T06:50:27;5.83;;;3.90;;
8574;SDS011;4325;42.520;27.448;2023-09-18T06:52:54;8.63;;;4.00;;
8574;SDS011;4325;42.520;27.448;2023-09-18T06:55:21;5.33;;;3.90;;
8574;SDS011;4325;42.520;27.448;2023-09-18T06:57:48;4.40;;;4.00;;
8574;SDS011;4325;42.520;27.448;2023-09-18T07:00:17;6.73;;;4.77;;
8574;SDS011;4325;42.520;27.448;2023-09-18T07:02:45;8.07;;;3.63;;
8574;SDS011;4325;42.520;27.448;2023-09-18T07:05:12;21.37;;;4.10;;
8574;SDS011;4325;42.520;27.448;2023-09-18T07:07:41;4.53;;;3.60;;
8574;SDS011;4325;42.520;27.448;2023-09-18T07:10:07;15.13;;;4.10;;
8574;SDS011;4325;42.520;27.448;2023-09-18T07:12:34;5.37;;;4.20;;
8574;SDS011;4325;42.520;27.448;2023-09-18T07:15:01;4.80;;;3.73;;
8574;SDS011;4325;42.520;27.448;2023-09-18T07:17:29;4.10;;;3.70;;
8574;SDS011;4325;42.520;27.448;2023-09-18T07:19:56;4.77;;;3.80;;
8574;SDS011;4325;42.520;27.448;2023-09-18T07:22:24;5.30;;;4.20;;
8574;SDS011;4325;42.520;27.448;2023-09-18T07:24:52;4.63;;;3.67;;
8574;SDS011;4325;42.520;27.448;2023-09-18T07:27:19;3.93;;;3.47;;
8574;SDS011;4325;42.520;27.448;2023-09-18T07:29:46;8.10;;;4.67;;
8574;SDS011;4325;42.520;27.448;2023-09-18T07:32:12;4.80;;;4.00;;
8574;SDS011;4325;42.520;27.448;2023-09-18T07:34:40;4.43;;;3.80;;
8574;SDS011;4325;42.520;27.448;2023-09-18T07:37:06;7.53;;;4.10;;
8574;SDS011;4325;42.520;27.448;2023-09-18T07:39:33;9.90;;;4.00;;
8574;SDS011;4325;42.520;27.448;2023-09-18T07:42:01;8.03;;;3.57;;
8574;SDS011;4325;42.520;27.448;2023-09-18T07:44:29;4.60;;;2.88;;
8574;SDS011;4325;42.520;27.448;2023-09-18T07:46:56;3.75;;;3.38;;
8574;SDS011;4325;42.520;27.448;2023-09-18T07:49:23;3.78;;;3.47;;
8574;SDS011;4325;42.520;27.448;2023-09-18T07:51:49;3.65;;;2.85;;
8574;SDS011;4325;42.520;27.448;2023-09-18T07:54:16;10.30;;;3.58;;
8574;SDS011;4325;42.520;27.448;2023-09-18T07:56:43;4.88;;;3.38;;
8574;SDS011;4325;42.520;27.448;2023-09-18T07:59:11;4.38;;;3.80;;
8574;SDS011;4325;42.520;27.448;2023-09-18T08:01:39;3.65;;;3.35;;
8574;SDS011;4325;42.520;27.448;2023-09-18T08:04:07;3.67;;;2.90;;
8574;SDS011;4325;42.520;27.448;2023-09-18T08:06:34;4.57;;;3.42;;
8574;SDS011;4325;42.520;27.448;2023-09-18T08:09:01;3.95;;;3.40;;
8574;SDS011;4325;42.520;27.448;2023-09-18T08:11:29;10.73;;;3.55;;
8574;SDS011;4325;42.520;27.448;2023-09-18T08:13:57;3.67;;;2.58;;
8574;SDS011;4325;42.520;27.448;2023-09-18T08:16:25;3.63;;;3.15;;
8574;SDS011;4325;42.520;27.448;2023-09-18T08:18:53;4.72;;;2.95;;
8574;SDS011;4325;42.520;27.448;2023-09-18T08:21:21;2.72;;;2.53;;
8574;SDS011;4325;42.520;27.448;2023-09-18T08:23:49;3.40;;;3.10;;
8574;SDS011;4325;42.520;27.448;2023-09-18T08:26:16;5.95;;;3.63;;
8574;SDS011;4325;42.520;27.448;2023-09-18T08:28:43;3.60;;;3.30;;
8574;SDS011;4325;42.520;27.448;2023-09-18T08:31:10;9.15;;;3.60;;
8574;SDS011;4325;42.520;27.448;2023-09-18T08:33:38;3.10;;;2.63;;
8574;SDS011;4325;42.520;27.448;2023-09-18T08:36:05;4.90;;;3.50;;
8574;SDS011;4325;42.520;27.448;2023-09-18T08:38:31;3.10;;;2.80;;
8574;SDS011;4325;42.520;27.448;2023-09-18T08:40:58;3.07;;;2.70;;
8574;SDS011;4325;42.520;27.448;2023-09-18T08:43:25;3.80;;;3.40;;
8574;SDS011;4325;42.520;27.448;2023-09-18T08:45:54;3.07;;;2.83;;
8574;SDS011;4325;42.520;27.448;2023-09-18T08:48:26;5.97;;;3.30;;
8574;SDS011;4325;42.520;27.448;2023-09-18T08:51:01;6.43;;;4.00;;
8574;SDS011;4325;42.520;27.448;2023-09-18T08:53:29;12.73;;;3.30;;
8574;SDS011;4325;42.520;27.448;2023-09-18T08:55:57;3.43;;;3.00;;
8574;SDS011;4325;42.520;27.448;2023-09-18T08:58:27;4.57;;;3.27;;
8574;SDS011;4325;42.520;27.448;2023-09-18T09:00:54;5.63;;;3.53;;
8574;SDS011;4325;42.520;27.448;2023-09-18T09:03:22;3.67;;;3.33;;
8574;SDS011;4325;42.520;27.448;2023-09-18T09:05:52;3.43;;;3.10;;
8574;SDS011;4325;42.520;27.448;2023-09-18T09:08:21;4.40;;;3.33;;
8574;SDS011;4325;42.520;27.448;2023-09-18T09:10:48;3.50;;;3.20;;
8574;SDS011;4325;42.520;27.448;2023-09-18T09:13:15;3.93;;;3.27;;
8574;SDS011;4325;42.520;27.448;2023-09-18T09:15:43;2.93;;;2.63;;
8574;SDS011;4325;42.520;27.448;2023-09-18T09:18:12;3.70;;;3.33;;
8574;SDS011;4325;42.520;27.448;2023-09-18T09:20:41;4.83;;;3.27;;
8574;SDS011;4325;42.520;27.448;2023-09-18T09:23:18;5.60;;;3.53;;
8574;SDS011;4325;42.520;27.448;2023-09-18T09:25:47;7.03;;;3.25;;
8574;SDS011;4325;42.520;27.448;2023-09-18T09:28:14;2.75;;;2.55;;
8574;SDS011;4325;42.520;27.448;2023-09-18T09:30:41;3.33;;;2.90;;
8574;SDS011;4325;42.520;27.448;2023-09-18T09:33:09;3.85;;;2.92;;
8574;SDS011;4325;42.520;27.448;2023-09-18T09:35:38;2.60;;;2.40;;
8574;SDS011;4325;42.520;27.448;2023-09-18T09:38:08;3.08;;;2.50;;
8574;SDS011;4325;42.520;27.448;2023-09-18T09:40:39;2.38;;;2.08;;
8574;SDS011;4325;42.520;27.448;2023-09-18T09:43:07;3.15;;;2.60;;
8574;SDS011;4325;42.520;27.448;2023-09-18T09:45:35;2.50;;;2.30;;
8574;SDS011;4325;42.520;27.448;2023-09-18T09:48:04;2.63;;;2.40;;
8574;SDS011;4325;42.520;27.448;2023-09-18T09:50:31;5.03;;;2.92;;
8574;SDS011;4325;42.520;27.448;2023-09-18T09:52:59;2.97;;;2.55;;
8574;SDS011;4325;42.520;27.448;2023-09-18T09:55:28;5.57;;;2.40;;
8574;SDS011;4325;42.520;27.448;2023-09-18T09:57:57;2.40;;;2.20;;
8574;SDS011;4325;42.520;27.448;2023-09-18T10:00:25;3.78;;;2.30;;
8574;SDS011;4325;42.520;27.448;2023-09-18T10:03:02;2.75;;;2.55;;
8574;SDS011;4325;42.520;27.448;2023-09-18T10:05:31;7.00;;;2.30;;
8574;SDS011;4325;42.520;27.448;2023-09-18T10:08:02;2.92;;;2.63;;
8574;SDS011;4325;42.520;27.448;2023-09-18T10:10:33;3.13;;;2.42;;
8574;SDS011;4325;42.520;27.448;2023-09-18T10:13:08;2.80;;;2.45;;
8574;SDS011;4325;42.520;27.448;2023-09-18T10:15:38;4.68;;;2.55;;
8574;SDS011;4325;42.520;27.448;2023-09-18T10:18:11;3.45;;;2.40;;
8574;SDS011;4325;42.520;27.448;2023-09-18T10:20:44;2.55;;;2.20;;
8574;SDS011;4325;42.520;27.448;2023-09-18T10:23:15;2.90;;;2.25;;
8574;SDS011;4325;42.520;27.448;2023-09-18T10:25:53;2.38;;;2.17;;
8574;SDS011;4325;42.520;27.448;2023-09-18T10:28:26;4.07;;;2.25;;
8574;SDS011;4325;42.520;27.448;2023-09-18T10:30:56;4.18;;;2.90;;
8574;SDS011;4325;42.520;27.448;2023-09-18T10:33:25;3.70;;;2.28;;
8574;SDS011;4325;42.520;27.448;2023-09-18T10:35:52;4.50;;;2.67;;
8574;SDS011;4325;42.520;27.448;2023-09-18T10:38:20;2.42;;;2.20;;
8574;SDS011;4325;42.520;27.448;2023-09-18T10:40:47;3.10;;;2.80;;
8574;SDS011;4325;42.520;27.448;2023-09-18T10:43:16;3.08;;;2.28;;
8574;SDS011;4325;42.520;27.448;2023-09-18T10:45:59;2.55;;;2.35;;
8574;SDS011;4325;42.520;27.448;2023-09-18T10:48:27;2.97;;;2.55;;
8574;SDS011;4325;42.520;27.448;2023-09-18T10:50:55;2.72;;;2.47;;
8574;SDS011;4325;42.520;27.448;2023-09-18T10:53:25;3.35;;;2.40;;
8574;SDS011;4325;42.520;27.448;2023-09-18T10:55:52;4.45;;;2.58;;
8574;SDS011;4325;42.520;27.448;2023-09-18T10:58:23;2.78;;;2.42;;
8574;SDS011;4325;42.520;27.448;2023-09-18T11:00:51;3.03;;;2.72;;
8574;SDS011;4325;42.520;27.448;2023-09-18T11:03:22;3.17;;;2.83;;
8574;SDS011;4325;42.520;27.448;2023-09-18T11:06:01;3.65;;;2.60;;
8574;SDS011;4325;42.520;27.448;2023-09-18T11:08:30;2.63;;;2.17;;
8574;SDS011;4325;42.520;27.448;2023-09-18T11:10:59;3.03;;;2.50;;
8574;SDS011;4325;42.520;27.448;2023-09-18T11:13:35;3.10;;;2.80;;
8574;SDS011;4325;42.520;27.448;2023-09-18T11:16:14;5.22;;;2.35;;
8574;SDS011;4325;42.520;27.448;2023-09-18T11:19:07;3.72;;;2.67;;
8574;SDS011;4325;42.520;27.448;2023-09-18T11:21:35;4.25;;;2.70;;
8574;SDS011;4325;42.520;27.448;2023-09-18T11:24:03;4.05;;;2.35;;
8574;SDS011;4325;42.520;27.448;2023-09-18T11:26:32;3.22;;;2.90;;
8574;SDS011;4325;42.520;27.448;2023-09-18T11:29:00;3.17;;;2.63;;
8574;SDS011;4325;42.520;27.448;2023-09-18T11:31:41;3.17;;;2.73;;
8574;SDS011;4325;42.520;27.448;2023-09-18T11:34:14;3.20;;;2.70;;
8574;SDS011;4325;42.520;27.448;2023-09-18T11:36:42;2.90;;;2.43;;
8574;SDS011;4325;42.520;27.448;2023-09-18T11:39:09;2.77;;;2.50;;
8574;SDS011;4325;42.520;27.448;2023-09-18T11:41:37;3.97;;;3.27;;
8574;SDS011;4325;42.520;27.448;2023-09-18T11:47:01;3.50;;;2.53;;
8574;SDS011;4325;42.520;27.448;2023-09-18T11:49:31;2.83;;;2.57;;
8574;SDS011;4325;42.520;27.448;2023-09-18T11:51:58;2.73;;;2.50;;
8574;SDS011;4325;42.520;27.448;2023-09-18T11:54:27;4.17;;;2.80;;
8574;SDS011;4325;42.520;27.448;2023-09-18T11:56:54;3.03;;;2.60;;
8574;SDS011;4325;42.520;27.448;2023-09-18T11:59:33;4.03;;;2.83;;
8574;SDS011;4325;42.520;27.448;2023-09-18T12:02:01;3.73;;;2.77;;
8574;SDS011;4325;42.520;27.448;2023-09-18T12:04:32;3.37;;;3.07;;
8574;SDS011;4325;42.520;27.448;2023-09-18T12:06:59;3.80;;;2.87;;
8574;SDS011;4325;42.520;27.448;2023-09-18T12:09:28;3.60;;;3.13;;
8574;SDS011;4325;42.520;27.448;2023-09-18T12:11:56;6.40;;;2.70;;
8574;SDS011;4325;42.520;27.448;2023-09-18T12:14:23;3.27;;;2.97;;
8574;SDS011;4325;42.520;27.448;2023-09-18T12:16:52;2.93;;;2.63;;
8574;SDS011;4325;42.520;27.448;2023-09-18T12:19:20;4.27;;;2.73;;
8574;SDS011;4325;42.520;27.448;2023-09-18T12:21:50;2.42;;;2.22;;
8574;SDS011;4325;42.520;27.448;2023-09-18T12:24:20;2.53;;;2.25;;
8574;SDS011;4325;42.520;27.448;2023-09-18T12:26:47;2.13;;;1.92;;
8574;SDS011;4325;42.520;27.448;2023-09-18T12:29:14;2.78;;;2.45;;
8574;SDS011;4325;42.520;27.448;2023-09-18T12:31:41;2.72;;;2.53;;
8574;SDS011;4325;42.520;27.448;2023-09-18T12:34:13;2.15;;;1.95;;
8574;SDS011;4325;42.520;27.448;2023-09-18T12:36:41;3.60;;;1.98;;
8574;SDS011;4325;42.520;27.448;2023-09-18T12:39:10;3.60;;;2.33;;
8574;SDS011;4325;42.520;27.448;2023-09-18T12:41:38;3.95;;;2.40;;
8574;SDS011;4325;42.520;27.448;2023-09-18T12:44:05;2.08;;;1.85;;
8574;SDS011;4325;42.520;27.448;2023-09-18T12:46:33;2.35;;;2.15;;
8574;SDS011;4325;42.520;27.448;2023-09-18T12:49:14;4.35;;;2.03;;
8574;SDS011;4325;42.520;27.448;2023-09-18T12:51:42;2.65;;;2.05;;
8574;SDS011;4325;42.520;27.448;2023-09-18T12:54:10;4.97;;;2.35;;
8574;SDS011;4325;42.520;27.448;2023-09-18T12:56:41;2.33;;;2.05;;
8574;SDS011;4325;42.520;27.448;2023-09-18T12:59:08;1.92;;;1.77;;
8574;SDS011;4325;42.520;27.448;2023-09-18T13:01:38;2.97;;;2.10;;
8574;SDS011;4325;42.520;27.448;2023-09-18T13:04:05;3.15;;;2.55;;
8574;SDS011;4325;42.520;27.448;2023-09-18T13:06:32;2.20;;;2.10;;
8574;SDS011;4325;42.520;27.448;2023-09-18T13:11:52;2.70;;;2.30;;
8574;SDS011;4325;42.520;27.448;2023-09-18T13:14:19;5.93;;;2.05;;
8574;SDS011;4325;42.520;27.448;2023-09-18T13:16:46;3.42;;;2.20;;
8574;SDS011;4325;42.520;27.448;2023-09-18T13:19:13;1.77;;;1.67;;
8574;SDS011;4325;42.520;27.448;2023-09-18T13:21:45;2.45;;;2.25;;
8574;SDS011;4325;42.520;27.448;2023-09-18T13:24:25;3.38;;;2.50;;
8574;SDS011;4325;42.520;27.448;2023-09-18T13:26:53;2.97;;;2.00;;
8574;SDS011;4325;42.520;27.448;2023-09-18T13:29:20;2.90;;;2.03;;
8574;SDS011;4325;42.520;27.448;2023-09-18T13:31:47;4.13;;;2.58;;
8574;SDS011;4325;42.520;27.448;2023-09-18T13:34:14;2.72;;;2.13;;
8574;SDS011;4325;42.520;27.448;2023-09-18T13:36:43;5.18;;;2.30;;
8574;SDS011;4325;42.520;27.448;2023-09-18T13:39:10;2.42;;;2.22;;
8574;SDS011;4325;42.520;27.448;2023-09-18T13:41:39;2.05;;;1.85;;
8574;SDS011;4325;42.520;27.448;2023-09-18T13:44:06;4.78;;;2.63;;
8574;SDS011;4325;42.520;27.448;2023-09-18T13:46:35;2.35;;;2.15;;
8574;SDS011;4325;42.520;27.448;2023-09-18T13:49:02;2.67;;;2.38;;
8574;SDS011;4325;42.520;27.448;2023-09-18T13:51:30;2.25;;;1.95;;
8574;SDS011;4325;42.520;27.448;2023-09-18T13:53:57;6.10;;;2.35;;
8574;SDS011;4325;42.520;27.448;2023-09-18T13:56:24;2.75;;;2.30;;
8574;SDS011;4325;42.520;27.448;2023-09-18T13:58:54;2.38;;;2.17;;
8574;SDS011;4325;42.520;27.448;2023-09-18T14:01:22;2.33;;;2.00;;
8574;SDS011;4325;42.520;27.448;2023-09-18T14:03:50;2.72;;;2.00;;
8574;SDS011;4325;42.520;27.448;2023-09-18T14:06:17;2.47;;;2.28;;
8574;SDS011;4325;42.520;27.448;2023-09-18T14:08:43;2.60;;;2.40;;
8574;SDS011;4325;42.520;27.448;2023-09-18T14:11:10;2.95;;;2.60;;
8574;SDS011;4325;42.520;27.448;2023-09-18T14:13:37;3.42;;;2.28;;
8574;SDS011;4325;42.520;27.448;2023-09-18T14:16:05;7.03;;;2.45;;
8574;SDS011;4325;42.520;27.448;2023-09-18T14:18:32;2.53;;;2.33;;
8574;SDS011;4325;42.520;27.448;2023-09-18T14:20:59;3.45;;;2.88;;
8574;SDS011;4325;42.520;27.448;2023-09-18T14:23:26;4.97;;;2.75;;
8574;SDS011;4325;42.520;27.448;2023-09-18T14:25:53;8.00;;;2.92;;
8574;SDS011;4325;42.520;27.448;2023-09-18T14:28:20;3.45;;;2.75;;
8574;SDS011;4325;42.520;27.448;2023-09-18T14:30:47;5.82;;;2.90;;
8574;SDS011;4325;42.520;27.448;2023-09-18T14:33:15;2.65;;;2.40;;
8574;SDS011;4325;42.520;27.448;2023-09-18T14:35:42;3.70;;;2.45;;
8574;SDS011;4325;42.520;27.448;2023-09-18T14:38:09;4.80;;;2.72;;
8574;SDS011;4325;42.520;27.448;2023-09-18T14:40:36;2.35;;;2.00;;
8574;SDS011;4325;42.520;27.448;2023-09-18T14:43:03;2.95;;;2.60;;
8574;SDS011;4325;42.520;27.448;2023-09-18T14:45:32;2.65;;;2.17;;
8574;SDS011;4325;42.520;27.448;2023-09-18T14:48:00;2.53;;;2.33;;
8574;SDS011;4325;42.520;27.448;2023-09-18T14:50:28;2.43;;;2.23;;
8574;SDS011;4325;42.520;27.448;2023-09-18T14:52:55;2.70;;;2.50;;
8574;SDS011;4325;42.520;27.448;2023-09-18T14:55:21;2.63;;;2.43;;
8574;SDS011;4325;42.520;27.448;2023-09-18T14:57:49;8.50;;;2.83;;
8574;SDS011;4325;42.520;27.448;2023-09-18T15:00:16;2.63;;;2.43;;
8574;SDS011;4325;42.520;27.448;2023-09-18T15:02:43;7.67;;;2.87;;
8574;SDS011;4325;42.520;27.448;2023-09-18T15:05:10;3.13;;;2.83;;
8574;SDS011;4325;42.520;27.448;2023-09-18T15:07:41;4.27;;;2.70;;
8574;SDS011;4325;42.520;27.448;2023-09-18T15:10:08;3.23;;;2.60;;
8574;SDS011;4325;42.520;27.448;2023-09-18T15:12:36;3.10;;;2.43;;